createdAt,value
2018-05-16T00:00:29.237Z,14.43
2018-05-16T00:02:57.344Z,14.18
2018-05-16T00:05:26.212Z,14.02
2018-05-16T00:07:55.060Z,16.10
2018-05-16T00:10:23.154Z,15.52
2018-05-16T00:12:51.252Z,14.52
2018-05-16T00:15:19.344Z,14.30
2018-05-16T00:17:47.548Z,14.38
2018-05-16T00:20:15.650Z,14.85
2018-05-16T00:22:43.741Z,14.50
2018-05-16T00:25:11.853Z,14.55
2018-05-16T00:27:40.034Z,13.52
2018-05-16T00:30:08.144Z,13.88
2018-05-16T00:32:36.249Z,15.07
2018-05-16T00:35:04.343Z,13.57
2018-05-16T00:37:32.447Z,13.85
2018-05-16T00:40:00.537Z,16.08
2018-05-16T00:42:28.667Z,13.82
2018-05-16T00:44:57.572Z,16.27
2018-05-16T00:47:25.672Z,13.32
2018-05-16T00:49:53.772Z,14.13
2018-05-16T00:52:21.887Z,14.48
2018-05-16T00:54:49.990Z,14.75
2018-05-16T00:57:18.091Z,15.55
2018-05-16T00:59:46.952Z,13.98
2018-05-16T01:02:15.090Z,15.27
2018-05-16T01:04:43.180Z,13.88
2018-05-16T01:07:11.281Z,18.17
2018-05-16T01:09:39.379Z,14.85
2018-05-16T01:12:07.487Z,15.23
2018-05-16T01:14:35.596Z,13.48
2018-05-16T01:17:03.679Z,16.87
2018-05-16T01:19:31.785Z,15.43
2018-05-16T01:21:59.883Z,15.35
2018-05-16T01:24:27.966Z,14.50
2018-05-16T01:26:56.074Z,16.40
2018-05-16T01:29:24.281Z,16.95
2018-05-16T01:31:52.369Z,15.30
2018-05-16T01:34:20.450Z,14.52
2018-05-16T01:36:48.539Z,15.27
2018-05-16T01:39:16.634Z,17.23
2018-05-16T01:41:44.731Z,15.40
2018-05-16T01:44:12.819Z,14.93
2018-05-16T01:46:40.909Z,16.58
2018-05-16T01:49:19.820Z,14.43
2018-05-16T01:51:47.924Z,15.02
2018-05-16T01:54:16.018Z,15.25
2018-05-16T01:56:44.875Z,14.90
2018-05-16T01:59:13.033Z,17.35
2018-05-16T02:01:41.134Z,14.38
2018-05-16T02:04:09.236Z,15.73
2018-05-16T02:06:38.093Z,18.15
2018-05-16T02:09:06.201Z,33.92
2018-05-16T02:11:35.074Z,16.67
2018-05-16T02:14:03.172Z,15.63
2018-05-16T02:16:31.269Z,14.50
2018-05-16T02:18:59.443Z,15.85
2018-05-16T02:21:27.536Z,16.00
2018-05-16T02:23:55.651Z,16.25
2018-05-16T02:26:24.334Z,16.23
2018-05-16T02:28:52.439Z,15.45
2018-05-16T02:31:20.543Z,14.13
2018-05-16T02:33:48.658Z,14.25
2018-05-16T02:36:17.536Z,17.73
2018-05-16T02:38:46.481Z,17.35
2018-05-16T02:41:15.363Z,17.00
2018-05-16T02:43:43.440Z,19.37
2018-05-16T02:46:11.527Z,18.33
2018-05-16T02:48:39.640Z,17.55
2018-05-16T02:51:08.492Z,15.77
2018-05-16T02:53:36.579Z,16.62
2018-05-16T02:56:04.676Z,23.27
2018-05-16T02:58:32.898Z,16.50
2018-05-16T03:01:01.019Z,16.58
2018-05-16T03:03:29.097Z,17.12
2018-05-16T03:05:57.188Z,17.90
2018-05-16T03:08:25.426Z,16.27
2018-05-16T03:10:53.553Z,15.00
2018-05-16T03:13:21.639Z,16.65
2018-05-16T03:15:49.733Z,17.12
2018-05-16T03:18:17.887Z,17.10
2018-05-16T03:20:45.984Z,17.98
2018-05-16T03:23:14.088Z,19.80
2018-05-16T03:25:42.181Z,17.48
2018-05-16T03:28:10.359Z,18.83
2018-05-16T03:30:38.443Z,17.27
2018-05-16T03:33:06.530Z,17.98
2018-05-16T03:35:34.634Z,18.23
2018-05-16T03:38:08.671Z,17.15
2018-05-16T03:40:36.759Z,18.30
2018-05-16T03:43:04.939Z,17.05
2018-05-16T03:45:33.085Z,17.17
2018-05-16T03:48:01.294Z,15.85
2018-05-16T03:50:29.392Z,17.00
2018-05-16T03:52:57.473Z,16.58
2018-05-16T03:55:25.576Z,17.83
2018-05-16T03:58:17.529Z,18.37
2018-05-16T04:00:57.493Z,18.23
2018-05-16T04:03:37.382Z,16.20
2018-05-16T04:06:05.472Z,17.00
2018-05-16T04:08:34.433Z,20.23
2018-05-16T04:11:02.541Z,18.75
2018-05-16T04:13:30.668Z,17.30
2018-05-16T04:15:59.611Z,19.52
2018-05-16T04:18:27.715Z,22.17
2018-05-16T04:20:57.310Z,21.40
2018-05-16T04:23:25.812Z,19.75
2018-05-16T04:25:53.892Z,17.90
2018-05-16T04:28:22.158Z,27.48
2018-05-16T04:30:50.156Z,18.60
2018-05-16T04:33:18.252Z,21.08
2018-05-16T04:35:46.339Z,17.05
2018-05-16T04:38:16.379Z,20.15
2018-05-16T04:40:44.486Z,16.35
2018-05-16T04:43:12.585Z,16.15
2018-05-16T04:45:40.780Z,18.48
2018-05-16T04:48:08.888Z,17.50
2018-05-16T04:50:36.983Z,16.65
2018-05-16T04:53:05.091Z,19.40
2018-05-16T04:55:33.700Z,19.10
2018-05-16T04:58:04.259Z,17.48
2018-05-16T05:00:33.309Z,16.98
2018-05-16T05:03:01.359Z,19.35
2018-05-16T05:05:30.223Z,18.10
2018-05-16T05:07:58.365Z,17.80
2018-05-16T05:10:27.309Z,21.90
2018-05-16T05:12:55.424Z,17.55
2018-05-16T05:15:23.540Z,19.08
2018-05-16T05:17:51.676Z,19.58
2018-05-16T05:20:19.776Z,18.80
2018-05-16T05:22:47.892Z,19.60
2018-05-16T05:25:15.986Z,20.42
2018-05-16T05:27:44.211Z,19.40
2018-05-16T05:30:12.296Z,20.33
2018-05-16T05:32:40.809Z,18.15
2018-05-16T05:35:08.919Z,19.83
2018-05-16T05:37:39.108Z,17.08
2018-05-16T05:40:07.847Z,18.25
2018-05-16T05:42:36.691Z,19.50
2018-05-16T05:45:04.783Z,17.45
2018-05-16T05:47:32.898Z,16.35
2018-05-16T05:50:01.000Z,17.95
2018-05-16T05:52:29.104Z,16.08
2018-05-16T05:54:57.288Z,16.85
2018-05-16T05:57:25.404Z,14.15
2018-05-16T05:59:53.620Z,15.10
2018-05-16T06:02:21.723Z,15.02
2018-05-16T06:04:50.598Z,15.85
2018-05-16T06:07:18.733Z,16.55
2018-05-16T06:09:46.828Z,14.20
2018-05-16T06:12:14.919Z,17.52
2018-05-16T06:14:43.051Z,14.27
2018-05-16T06:17:11.736Z,14.60
2018-05-16T06:19:39.845Z,16.90
2018-05-16T06:22:07.903Z,14.23
2018-05-16T06:24:36.005Z,14.27
2018-05-16T06:27:04.106Z,15.07
2018-05-16T06:29:32.310Z,12.80
2018-05-16T06:32:01.170Z,15.95
2018-05-16T06:34:29.268Z,14.25
2018-05-16T06:36:57.365Z,14.77
2018-05-16T06:39:27.477Z,16.23
2018-05-16T06:41:55.585Z,14.70
2018-05-16T06:44:23.687Z,13.55
2018-05-16T06:46:51.900Z,16.27
2018-05-16T06:49:23.649Z,13.98
2018-05-16T06:51:55.624Z,14.20
2018-05-16T06:54:23.716Z,13.90
2018-05-16T06:56:55.038Z,13.32
2018-05-16T06:59:24.139Z,15.10
2018-05-16T07:01:52.237Z,15.38
2018-05-16T07:04:20.339Z,12.95
2018-05-16T07:06:48.826Z,13.88
2018-05-16T07:09:17.075Z,14.25
2018-05-16T07:11:45.984Z,13.82
2018-05-16T07:14:14.383Z,14.98
2018-05-16T07:16:42.633Z,13.27
2018-05-16T07:19:11.168Z,13.52
2018-05-16T07:21:40.034Z,11.27
2018-05-16T07:24:08.141Z,11.85
2018-05-16T07:26:37.767Z,11.70
2018-05-16T07:29:06.523Z,11.73
2018-05-16T07:31:34.600Z,10.65
2018-05-16T07:34:02.742Z,10.93
2018-05-16T07:36:30.952Z,12.23
2018-05-16T07:38:59.071Z,11.82
2018-05-16T07:41:27.223Z,10.38
2018-05-16T07:43:55.500Z,11.02
2018-05-16T07:46:23.619Z,11.12
2018-05-16T07:48:51.768Z,12.02
2018-05-16T07:51:20.791Z,11.20
2018-05-16T07:53:48.871Z,10.25
2018-05-16T07:56:16.971Z,10.60
2018-05-16T07:58:45.172Z,11.00
2018-05-16T08:01:13.279Z,10.80
2018-05-16T08:03:41.410Z,9.77
2018-05-16T08:06:09.665Z,12.70
2018-05-16T08:08:37.850Z,8.93
2018-05-16T08:11:05.970Z,8.75
2018-05-16T08:13:34.094Z,8.90
2018-05-16T08:16:02.228Z,10.32
2018-05-16T08:18:33.613Z,8.27
2018-05-16T08:21:01.732Z,13.45
2018-05-16T08:23:29.957Z,9.50
2018-05-16T08:25:58.074Z,6.90
2018-05-16T08:28:26.326Z,9.80
2018-05-16T08:30:54.437Z,9.50
2018-05-16T08:33:22.565Z,7.18
2018-05-16T08:35:50.691Z,7.95
2018-05-16T08:38:18.820Z,8.27
2018-05-16T08:40:47.017Z,7.95
2018-05-16T08:43:15.175Z,9.23
2018-05-16T08:45:43.327Z,7.72
2018-05-16T08:48:11.537Z,7.43
2018-05-16T08:50:39.657Z,7.60
2018-05-16T08:53:08.172Z,5.30
2018-05-16T08:55:36.297Z,7.20
2018-05-16T08:58:04.420Z,7.87
2018-05-16T09:00:33.897Z,6.93
2018-05-16T09:03:01.976Z,6.90
2018-05-16T09:05:32.097Z,8.23
2018-05-16T09:08:01.252Z,7.75
2018-05-16T09:10:29.375Z,8.60
2018-05-16T09:12:57.517Z,7.80
2018-05-16T09:15:26.846Z,6.80
2018-05-16T09:17:59.234Z,7.45
2018-05-16T09:20:27.335Z,7.68
2018-05-16T09:22:55.619Z,7.95
2018-05-16T09:25:24.217Z,6.18
2018-05-16T09:27:52.330Z,6.35
2018-05-16T09:30:21.518Z,4.90
2018-05-16T09:32:49.618Z,5.18
2018-05-16T09:35:18.114Z,4.18
2018-05-16T09:37:49.760Z,4.65
2018-05-16T09:40:19.130Z,4.87
2018-05-16T09:42:47.366Z,4.35
2018-05-16T09:45:16.856Z,4.65
2018-05-16T09:47:45.717Z,5.37
2018-05-16T09:50:13.857Z,5.15
2018-05-16T09:52:42.737Z,4.93
2018-05-16T09:55:10.854Z,5.03
2018-05-16T09:57:39.014Z,6.10
2018-05-16T10:00:07.144Z,6.00
2018-05-16T10:02:35.279Z,6.95
2018-05-16T10:05:04.170Z,7.68
2018-05-16T10:07:33.162Z,7.55
2018-05-16T10:10:01.293Z,7.40
2018-05-16T10:12:29.404Z,7.10
2018-05-16T10:14:57.567Z,7.85
2018-05-16T10:17:25.957Z,9.93
2018-05-16T10:19:54.099Z,9.45
2018-05-16T10:22:22.211Z,8.93
2018-05-16T10:24:50.332Z,9.25
2018-05-16T10:27:18.712Z,9.30
2018-05-16T10:29:47.584Z,11.07
2018-05-16T10:32:16.735Z,9.70
2018-05-16T10:34:45.754Z,9.32
2018-05-16T10:37:14.794Z,8.10
2018-05-16T10:39:44.043Z,7.78
2018-05-16T10:42:13.245Z,9.43
2018-05-16T10:44:42.119Z,9.73
2018-05-16T10:47:11.011Z,10.02
2018-05-16T10:49:39.859Z,10.15
2018-05-16T10:52:08.031Z,9.32
2018-05-16T10:54:36.098Z,9.32
2018-05-16T10:57:04.266Z,10.23
2018-05-16T10:59:32.502Z,9.38
2018-05-16T11:02:00.637Z,10.18
2018-05-16T11:04:28.775Z,10.02
2018-05-16T11:06:56.934Z,9.98
2018-05-16T11:09:25.225Z,9.32
2018-05-16T11:11:53.333Z,8.70
2018-05-16T11:14:21.475Z,8.07
2018-05-16T11:16:50.127Z,9.98
2018-05-16T11:19:19.119Z,11.10
2018-05-16T11:21:47.938Z,8.70
2018-05-16T11:24:16.044Z,9.35
2018-05-16T11:26:44.143Z,7.20
2018-05-16T11:29:13.239Z,8.30
2018-05-16T11:31:41.914Z,7.25
2018-05-16T11:34:10.059Z,7.25
2018-05-16T11:36:38.264Z,9.43
2018-05-16T11:39:07.364Z,7.82
2018-05-16T11:41:35.481Z,5.65
2018-05-16T11:44:03.603Z,5.12
2018-05-16T11:46:31.729Z,4.93
2018-05-16T11:49:00.895Z,4.12
2018-05-16T11:51:29.008Z,4.90
2018-05-16T11:53:57.121Z,5.30
2018-05-16T11:56:25.317Z,5.37
2018-05-16T11:58:53.484Z,4.78
2018-05-16T12:01:21.597Z,6.90
2018-05-16T12:03:49.708Z,5.30
2018-05-16T12:06:17.831Z,4.85
2018-05-16T12:08:48.840Z,5.28
2018-05-16T12:11:16.970Z,5.12
2018-05-16T12:13:45.083Z,5.43
2018-05-16T12:16:13.238Z,6.72
2018-05-16T12:18:41.360Z,5.22
2018-05-16T12:21:20.340Z,5.97
2018-05-16T12:23:49.712Z,5.65
2018-05-16T12:26:21.411Z,5.93
2018-05-16T12:28:50.486Z,6.93
2018-05-16T12:31:18.559Z,7.05
2018-05-16T12:33:46.682Z,7.25
2018-05-16T12:36:14.802Z,7.32
2018-05-16T12:38:43.362Z,7.78
2018-05-16T12:41:11.480Z,7.18
2018-05-16T12:43:39.584Z,6.87
2018-05-16T12:46:07.723Z,6.87
2018-05-16T12:48:35.858Z,7.20
2018-05-16T12:51:03.974Z,8.40
2018-05-16T12:53:32.094Z,8.45
2018-05-16T12:56:00.212Z,7.80
2018-05-16T12:58:28.340Z,7.90
2018-05-16T13:00:56.463Z,6.72
2018-05-16T13:03:24.586Z,8.23
2018-05-16T13:05:53.061Z,5.93
2018-05-16T13:08:21.185Z,5.18
2018-05-16T13:10:49.382Z,5.68
2018-05-16T13:13:18.272Z,6.50
2018-05-16T13:15:47.528Z,4.32
2018-05-16T13:18:15.728Z,5.50
2018-05-16T13:20:45.552Z,5.07
2018-05-16T13:23:14.257Z,4.82
2018-05-16T13:25:42.380Z,4.53
2018-05-16T13:28:11.714Z,4.85
2018-05-16T13:30:41.399Z,4.72
2018-05-16T13:33:10.686Z,3.42
2018-05-16T13:35:38.851Z,3.80
2018-05-16T13:38:07.779Z,3.77
2018-05-16T13:40:36.533Z,2.87
2018-05-16T13:43:04.674Z,3.50
2018-05-16T13:45:33.879Z,3.70
2018-05-16T13:48:02.849Z,3.47
2018-05-16T13:50:30.962Z,2.77
2018-05-16T13:52:59.343Z,2.33
2018-05-16T13:55:27.467Z,3.10
2018-05-16T13:57:55.732Z,3.07
2018-05-16T14:00:23.842Z,3.57
2018-05-16T14:02:52.655Z,2.70
2018-05-16T14:05:22.278Z,3.13
2018-05-16T14:07:50.465Z,2.53
2018-05-16T14:10:20.113Z,2.80
2018-05-16T14:12:48.230Z,3.30
2018-05-16T14:15:17.719Z,3.47
2018-05-16T14:17:47.711Z,3.10
2018-05-16T14:20:16.248Z,2.67
2018-05-16T14:22:46.589Z,3.00
2018-05-16T14:25:15.076Z,3.27
2018-05-16T14:27:43.501Z,3.40
2018-05-16T14:30:14.037Z,3.63
2018-05-16T14:32:42.511Z,3.60
2018-05-16T14:35:10.664Z,3.30
2018-05-16T14:37:39.628Z,3.80
2018-05-16T14:40:07.917Z,3.87
2018-05-16T14:42:36.163Z,3.20
2018-05-16T14:45:07.440Z,3.53
2018-05-16T14:47:40.052Z,3.40
2018-05-16T14:50:12.984Z,3.20
2018-05-16T14:52:41.421Z,3.87
2018-05-16T14:55:09.548Z,2.80
2018-05-16T14:57:38.182Z,3.20
2018-05-16T15:00:06.357Z,3.20
2018-05-16T15:02:35.238Z,3.05
2018-05-16T15:05:03.383Z,2.95
2018-05-16T15:07:33.579Z,2.75
2018-05-16T15:10:01.622Z,2.60
2018-05-16T15:12:29.758Z,2.67
2018-05-16T15:14:57.927Z,3.17
2018-05-16T15:17:28.025Z,3.08
2018-05-16T15:19:56.238Z,3.30
2018-05-16T15:22:25.086Z,3.40
2018-05-16T15:24:53.256Z,3.58
2018-05-16T15:27:22.222Z,3.80
2018-05-16T15:29:50.335Z,3.90
2018-05-16T15:32:19.644Z,4.82
2018-05-16T15:34:49.386Z,3.45
2018-05-16T15:37:17.560Z,3.35
2018-05-16T15:39:45.724Z,4.20
2018-05-16T15:42:14.689Z,3.72
2018-05-16T15:44:42.898Z,4.57
2018-05-16T15:47:12.239Z,7.53
2018-05-16T15:49:40.366Z,4.25
2018-05-16T15:52:09.071Z,3.65
2018-05-16T15:54:37.216Z,2.35
2018-05-16T15:57:05.817Z,2.95
2018-05-16T15:59:34.002Z,2.53
2018-05-16T16:02:02.098Z,2.60
2018-05-16T16:04:30.217Z,2.30
2018-05-16T16:06:59.189Z,6.82
2018-05-16T16:09:27.378Z,3.03
2018-05-16T16:11:58.715Z,3.78
2018-05-16T16:14:27.095Z,4.62
2018-05-16T16:16:55.206Z,4.10
2018-05-16T16:19:27.035Z,6.12
2018-05-16T16:21:55.165Z,4.80
2018-05-16T16:24:26.510Z,4.68
2018-05-16T16:26:54.617Z,7.03
2018-05-16T16:29:25.635Z,4.95
2018-05-16T16:31:54.496Z,4.53
2018-05-16T16:34:22.619Z,4.87
2018-05-16T16:36:50.754Z,4.35
2018-05-16T16:39:19.209Z,4.15
2018-05-16T16:41:48.096Z,4.10
2018-05-16T16:44:16.675Z,3.25
2018-05-16T16:46:45.629Z,4.07
2018-05-16T16:49:24.452Z,2.22
2018-05-16T16:51:53.336Z,2.90
2018-05-16T16:54:21.528Z,3.53
2018-05-16T16:56:50.580Z,3.17
2018-05-16T16:59:22.401Z,2.90
2018-05-16T17:01:50.558Z,2.90
2018-05-16T17:04:18.761Z,3.90
2018-05-16T17:06:46.963Z,2.95
2018-05-16T17:09:15.375Z,3.62
2018-05-16T17:11:43.505Z,3.78
2018-05-16T17:14:12.231Z,4.50
2018-05-16T17:16:42.138Z,4.40
2018-05-16T17:19:11.063Z,3.47
2018-05-16T17:21:40.026Z,3.50
2018-05-16T17:24:08.168Z,3.58
2018-05-16T17:26:39.732Z,4.18
2018-05-16T17:29:07.860Z,3.30
2018-05-16T17:31:35.972Z,3.55
2018-05-16T17:34:04.090Z,3.40
2018-05-16T17:36:33.083Z,4.05
2018-05-16T17:39:02.131Z,4.93
2018-05-16T17:41:30.247Z,5.35
2018-05-16T17:43:58.355Z,3.97
2018-05-16T17:46:26.496Z,3.87
2018-05-16T17:48:55.689Z,4.07
2018-05-16T17:51:26.966Z,3.83
2018-05-16T17:53:55.063Z,4.03
2018-05-16T17:56:23.191Z,4.05
2018-05-16T17:58:55.158Z,4.40
2018-05-16T18:01:28.755Z,6.55
2018-05-16T18:03:57.709Z,5.15
2018-05-16T18:06:32.767Z,4.60
2018-05-16T18:09:02.529Z,6.45
2018-05-16T18:11:31.387Z,6.87
2018-05-16T18:14:11.303Z,4.53
2018-05-16T18:16:51.746Z,4.25
2018-05-16T18:19:23.135Z,5.32
2018-05-16T18:21:51.613Z,4.28
2018-05-16T18:24:20.088Z,4.62
2018-05-16T18:26:48.559Z,6.00
2018-05-16T18:29:16.943Z,3.92
2018-05-16T18:31:45.087Z,4.85
2018-05-16T18:34:13.213Z,5.25
2018-05-16T18:36:42.760Z,4.47
2018-05-16T18:39:11.004Z,5.85
2018-05-16T18:41:42.135Z,4.90
2018-05-16T18:44:10.222Z,7.10
2018-05-16T18:46:38.342Z,4.95
2018-05-16T18:49:09.187Z,4.90
2018-05-16T18:51:37.463Z,5.85
2018-05-16T18:54:06.237Z,5.25
2018-05-16T18:56:34.347Z,5.22
2018-05-16T18:59:03.700Z,5.53
2018-05-16T19:01:31.800Z,5.20
2018-05-16T19:04:00.696Z,5.60
2018-05-16T19:06:30.190Z,5.15
2018-05-16T19:08:59.316Z,6.05
2018-05-16T19:11:27.464Z,5.82
2018-05-16T19:13:56.369Z,3.90
2018-05-16T19:16:24.521Z,4.95
2018-05-16T19:18:56.331Z,7.60
2018-05-16T19:21:24.460Z,5.00
2018-05-16T19:23:54.047Z,4.53
2018-05-16T19:26:22.893Z,8.10
2018-05-16T19:28:52.285Z,5.00
2018-05-16T19:31:23.741Z,6.97
2018-05-16T19:33:51.855Z,4.50
2018-05-16T19:36:19.995Z,4.93
2018-05-16T19:41:21.372Z,4.93
2018-05-16T19:43:50.548Z,5.47
2018-05-16T19:46:19.877Z,4.07
2018-05-16T19:48:47.922Z,4.05
2018-05-16T19:51:16.044Z,4.90
2018-05-16T19:53:44.164Z,7.45
2018-05-16T19:56:12.696Z,4.75
2018-05-16T19:58:40.852Z,4.62
2018-05-16T20:01:12.002Z,7.28
2018-05-16T20:03:43.464Z,4.12
2018-05-16T20:06:12.533Z,4.62
2018-05-16T20:08:43.554Z,4.60
2018-05-16T20:11:12.444Z,6.72
2018-05-16T20:13:40.947Z,4.35
2018-05-16T20:16:09.209Z,6.62
2018-05-16T20:18:40.415Z,5.68
2018-05-16T20:21:09.087Z,4.95
2018-05-16T20:23:38.639Z,4.95
2018-05-16T20:26:07.012Z,4.80
2018-05-16T20:28:36.125Z,7.25
2018-05-16T20:31:04.244Z,5.82
2018-05-16T20:33:33.126Z,5.30
2018-05-16T20:36:02.188Z,4.72
2018-05-16T20:38:31.328Z,5.05
2018-05-16T20:41:00.197Z,8.32
2018-05-16T20:43:30.151Z,5.90
2018-05-16T20:45:58.443Z,4.65
2018-05-16T20:48:26.632Z,4.50
2018-05-16T20:50:56.113Z,5.53
2018-05-16T20:53:24.150Z,5.10
2018-05-16T20:55:52.261Z,3.65
2018-05-16T20:58:20.394Z,8.10
2018-05-16T21:00:48.509Z,5.20
2018-05-16T21:03:16.608Z,5.35
2018-05-16T21:05:45.112Z,4.57
2018-05-16T21:08:14.275Z,3.97
2018-05-16T21:10:42.399Z,4.55
2018-05-16T21:13:10.511Z,4.70
2018-05-16T21:15:39.962Z,5.28
2018-05-16T21:18:08.195Z,4.10
2018-05-16T21:20:37.239Z,4.65
2018-05-16T21:23:06.090Z,4.95
2018-05-16T21:25:34.967Z,5.53
2018-05-16T21:28:03.144Z,5.87
2018-05-16T21:30:31.677Z,5.50
2018-05-16T21:32:59.779Z,4.80
2018-05-16T21:35:27.992Z,5.35
2018-05-16T21:37:57.667Z,5.32
2018-05-16T21:40:25.798Z,8.60
2018-05-16T21:42:53.893Z,4.78
2018-05-16T21:45:21.999Z,5.80
2018-05-16T21:47:50.433Z,5.00
2018-05-16T21:50:19.211Z,5.68
2018-05-16T21:52:48.071Z,5.80
2018-05-16T21:55:16.188Z,4.68
2018-05-16T21:57:44.306Z,5.60
2018-05-16T22:00:12.421Z,6.53
2018-05-16T22:02:40.531Z,7.30
2018-05-16T22:05:12.245Z,5.68
2018-05-16T22:07:40.488Z,4.65
2018-05-16T22:10:08.591Z,5.00
2018-05-16T22:12:36.706Z,4.60
2018-05-16T22:15:04.820Z,4.65
2018-05-16T22:17:32.959Z,5.57
2018-05-16T22:20:01.065Z,5.75
2018-05-16T22:22:29.174Z,5.22
2018-05-16T22:24:57.300Z,6.03
2018-05-16T22:27:25.417Z,6.07
2018-05-16T22:29:53.529Z,6.35
2018-05-16T22:32:27.223Z,6.10
2018-05-16T22:35:00.928Z,5.60
2018-05-16T22:37:34.604Z,5.37
2018-05-16T22:40:08.275Z,6.55
2018-05-16T22:42:36.676Z,5.25
2018-05-16T22:45:13.493Z,5.87
2018-05-16T22:47:43.645Z,7.40
2018-05-16T22:50:11.757Z,6.65
2018-05-16T22:52:39.877Z,7.70
2018-05-16T22:55:08.000Z,6.40
2018-05-16T22:57:38.164Z,8.30
2018-05-16T23:00:06.379Z,6.85
2018-05-16T23:02:35.240Z,7.00
2018-05-16T23:05:04.021Z,8.68
2018-05-16T23:07:32.207Z,6.85
2018-05-16T23:10:00.306Z,6.95
2018-05-16T23:12:29.187Z,7.10
2018-05-16T23:14:57.300Z,7.45
2018-05-16T23:17:25.422Z,11.02
2018-05-16T23:19:54.858Z,9.10
2018-05-16T23:22:22.974Z,8.98
2018-05-16T23:24:51.087Z,9.15
2018-05-16T23:27:19.975Z,9.27
2018-05-16T23:29:48.874Z,10.05
2018-05-16T23:32:16.987Z,9.73
2018-05-16T23:34:45.110Z,9.82
2018-05-16T23:37:13.630Z,9.52
2018-05-16T23:39:41.752Z,10.40
2018-05-16T23:42:09.874Z,13.30
2018-05-16T23:44:37.994Z,16.65
2018-05-16T23:47:06.119Z,11.10
2018-05-16T23:49:34.220Z,9.50
2018-05-16T23:52:02.327Z,10.73
2018-05-16T23:54:31.224Z,10.80
2018-05-16T23:57:00.091Z,10.80
2018-05-16T23:59:28.255Z,10.15
